Terminal Aerodrome Forecast
Issued by NWS Bismarck, ND

Home | Current Version | Previous Version | Text Only | Print | Product List | Glossary Off
Versions: 1 2 3 4 5 6 7 8 9 10 11 12 13 14 15 16 17

000
FTUS43 KBIS 312331
TAFISN
TAF
KISN 312331Z 0100/0124 02007KT P6SM SKC
     FM010300 VRB03KT P6SM SKC
     FM011800 28011KT P6SM SKC
     FM012100 29014G24KT P6SM SKC=

USA.gov is the U.S. government's official web portal to all federal, state and local government web resources and services.